createdAt,value
2022-09-04T00:00:06.451Z,3.55
2022-09-04T00:02:51.424Z,3.70
2022-09-04T00:05:28.559Z,3.55
2022-09-04T00:08:16.374Z,3.47
2022-09-04T00:11:02.151Z,4.07
2022-09-04T00:13:43.802Z,3.60
2022-09-04T00:16:25.606Z,3.85
2022-09-04T00:19:09.903Z,3.45
2022-09-04T00:22:00.368Z,3.55
2022-09-04T00:24:37.150Z,3.10
2022-09-04T00:27:18.940Z,3.55
2022-09-04T00:29:54.074Z,3.35
2022-09-04T00:32:41.077Z,3.20
2022-09-04T00:35:23.279Z,3.13
2022-09-04T00:38:29.761Z,2.97
2022-09-04T00:41:26.132Z,3.20
2022-09-04T00:44:22.100Z,2.80
2022-09-04T00:47:13.413Z,3.10
2022-09-04T00:50:02.359Z,3.17
2022-09-04T00:53:06.010Z,2.72
2022-09-04T00:55:52.109Z,3.45
2022-09-04T00:58:44.173Z,3.20
2022-09-04T01:01:19.590Z,3.08
2022-09-04T01:04:15.073Z,3.10
2022-09-04T01:07:15.229Z,3.38
2022-09-04T01:09:56.486Z,2.90
2022-09-04T01:12:46.023Z,3.03
2022-09-04T01:15:42.214Z,3.28
2022-09-04T01:18:34.979Z,3.45
2022-09-04T01:21:24.937Z,2.70
2022-09-04T01:24:13.138Z,3.30
2022-09-04T01:27:21.799Z,3.28
2022-09-04T01:30:16.794Z,3.15
2022-09-04T01:33:08.073Z,2.97
2022-09-04T01:35:48.374Z,2.97
2022-09-04T01:38:23.746Z,2.75
2022-09-04T01:40:59.313Z,3.22
2022-09-04T01:43:32.027Z,3.00
2022-09-04T01:46:32.251Z,3.10
2022-09-04T01:49:18.299Z,3.53
2022-09-04T01:52:00.138Z,3.40
2022-09-04T01:54:36.981Z,3.00
2022-09-04T01:57:46.794Z,3.13
2022-09-04T02:00:21.337Z,3.00
2022-09-04T02:03:00.170Z,3.20
2022-09-04T02:05:39.267Z,3.17
2022-09-04T02:08:33.057Z,3.70
2022-09-04T02:11:28.197Z,3.05
2022-09-04T02:14:38.538Z,3.53
2022-09-04T02:17:25.377Z,3.63
2022-09-04T02:20:31.887Z,3.20
2022-09-04T02:23:23.879Z,3.72
2022-09-04T02:26:12.050Z,3.50
2022-09-04T02:28:57.581Z,3.22
2022-09-04T02:31:49.386Z,3.40
2022-09-04T02:34:57.543Z,3.50
2022-09-04T02:37:36.035Z,3.45
2022-09-04T02:40:16.376Z,3.30
2022-09-04T02:43:09.201Z,3.00
2022-09-04T02:46:36.685Z,3.13
2022-09-04T02:49:23.046Z,3.10
2022-09-04T02:52:09.927Z,2.80
2022-09-04T02:54:44.819Z,2.90
2022-09-04T02:58:05.216Z,2.83
2022-09-04T03:00:45.554Z,2.78
2022-09-04T03:03:24.643Z,2.80
2022-09-04T03:06:21.694Z,2.50
2022-09-04T03:09:01.049Z,2.70
2022-09-04T03:11:46.226Z,2.90
2022-09-04T03:14:28.376Z,2.53
2022-09-04T03:17:13.207Z,2.50
2022-09-04T03:19:51.012Z,2.88
2022-09-04T03:22:47.897Z,2.63
2022-09-04T03:25:47.670Z,2.55
2022-09-04T03:28:46.806Z,3.00
2022-09-04T03:31:43.549Z,2.83
2022-09-04T03:34:38.655Z,2.63
2022-09-04T03:37:17.340Z,2.75
2022-09-04T03:40:24.690Z,2.85
2022-09-04T03:43:21.133Z,2.70
2022-09-04T03:45:58.930Z,2.85
2022-09-04T03:48:34.022Z,2.88
2022-09-04T03:51:20.101Z,2.70
2022-09-04T03:54:28.925Z,3.00
2022-09-04T03:57:24.497Z,3.17
2022-09-04T04:00:08.284Z,2.75
2022-09-04T04:03:10.952Z,3.80
2022-09-04T04:06:06.021Z,3.40
2022-09-04T04:08:55.517Z,3.85
2022-09-04T04:11:43.347Z,3.47
2022-09-04T04:14:33.127Z,3.60
2022-09-04T04:17:29.388Z,3.33
2022-09-04T04:20:22.907Z,3.25
2022-09-04T04:25:47.727Z,3.20
2022-09-04T04:28:44.161Z,3.65
2022-09-04T04:32:07.914Z,3.78
2022-09-04T04:34:46.592Z,3.88
2022-09-04T04:37:25.697Z,4.03
2022-09-04T04:40:33.836Z,3.60
2022-09-04T04:43:22.628Z,4.72
2022-09-04T04:46:02.380Z,4.20
2022-09-04T04:48:46.829Z,3.83
2022-09-04T04:51:48.720Z,3.70
2022-09-04T04:54:48.629Z,3.85
2022-09-04T04:57:39.728Z,3.92
2022-09-04T05:00:27.536Z,3.78
2022-09-04T05:03:20.501Z,3.70
2022-09-04T05:06:24.275Z,3.77
2022-09-04T05:12:02.258Z,3.45
2022-09-04T05:14:40.069Z,3.72
2022-09-04T05:17:25.018Z,4.30
2022-09-04T05:20:39.751Z,3.95
2022-09-04T05:23:24.910Z,3.10
2022-09-04T05:26:20.359Z,2.92
2022-09-04T05:29:16.950Z,2.90
2022-09-04T05:32:21.111Z,2.72
2022-09-04T05:34:51.820Z,2.65
2022-09-04T05:37:44.187Z,3.10
2022-09-04T05:40:54.851Z,2.58
2022-09-04T05:43:59.571Z,2.28
2022-09-04T05:47:12.355Z,2.90
2022-09-04T05:50:08.301Z,3.25
2022-09-04T05:53:03.081Z,3.10
2022-09-04T05:55:33.221Z,2.90
2022-09-04T05:58:25.937Z,2.90
2022-09-04T06:01:38.874Z,2.13
2022-09-04T06:04:28.636Z,2.60
2022-09-04T06:07:37.095Z,2.28
2022-09-04T06:10:12.376Z,2.45
2022-09-04T06:13:19.316Z,2.40
2022-09-04T06:16:09.325Z,2.60
2022-09-04T06:19:04.198Z,2.70
2022-09-04T06:22:08.401Z,2.50
2022-09-04T06:24:47.930Z,2.83
2022-09-04T06:27:49.150Z,2.47
2022-09-04T06:30:20.948Z,2.40
2022-09-04T06:33:22.957Z,2.10
2022-09-04T06:36:12.122Z,2.22
2022-09-04T06:39:04.742Z,2.20
2022-09-04T06:41:56.220Z,2.23
2022-09-04T06:44:56.566Z,1.88
2022-09-04T06:47:48.360Z,1.80
2022-09-04T06:50:44.096Z,1.77
2022-09-04T06:53:20.060Z,2.20
2022-09-04T06:56:18.388Z,2.08
2022-09-04T06:59:13.976Z,2.15
2022-09-04T07:02:05.070Z,1.70
2022-09-04T07:04:48.036Z,1.55
2022-09-04T07:07:17.672Z,1.70
2022-09-04T07:09:58.701Z,1.67
2022-09-04T07:12:34.192Z,1.90
2022-09-04T07:15:38.038Z,2.35
2022-09-04T07:18:37.039Z,1.95
2022-09-04T07:21:39.616Z,1.77
2022-09-04T07:24:44.759Z,1.70
2022-09-04T07:27:46.434Z,1.83
2022-09-04T07:30:19.109Z,1.40
2022-09-04T07:32:57.542Z,1.30
2022-09-04T07:35:46.007Z,1.40
2022-09-04T07:38:50.594Z,1.73
2022-09-04T07:42:06.037Z,1.80
2022-09-04T07:44:42.382Z,1.85
2022-09-04T07:47:21.043Z,1.50
2022-09-04T07:50:08.797Z,1.80
2022-09-04T07:52:40.204Z,1.67
2022-09-04T07:55:45.313Z,2.20
2022-09-04T07:58:31.550Z,2.67
2022-09-04T08:01:43.457Z,3.10
2022-09-04T08:04:46.083Z,3.47
2022-09-04T08:07:24.904Z,4.00
2022-09-04T08:10:30.538Z,4.03
2022-09-04T08:13:14.167Z,3.50
2022-09-04T08:16:03.117Z,3.53
2022-09-04T08:19:09.334Z,3.92
2022-09-04T08:21:38.373Z,3.70
2022-09-04T08:24:31.816Z,3.88
2022-09-04T08:27:34.694Z,3.50
2022-09-04T08:30:21.826Z,3.00
2022-09-04T08:33:27.567Z,3.35
2022-09-04T08:36:04.336Z,3.53
2022-09-04T08:38:57.918Z,3.28
2022-09-04T08:41:57.760Z,3.00
2022-09-04T08:45:03.352Z,2.80
2022-09-04T08:48:01.036Z,2.80
2022-09-04T08:50:58.368Z,2.70
2022-09-04T08:53:46.987Z,2.60
2022-09-04T08:56:34.711Z,2.20
2022-09-04T08:59:19.819Z,3.45
2022-09-04T09:02:01.228Z,2.30
2022-09-04T09:05:15.763Z,2.50
2022-09-04T09:08:13.438Z,2.55
2022-09-04T09:10:54.058Z,2.58
2022-09-04T09:13:48.686Z,2.53
2022-09-04T09:16:22.499Z,2.60
2022-09-04T09:18:49.375Z,2.35
2022-09-04T09:21:45.617Z,2.50
2022-09-04T09:24:50.105Z,2.60
2022-09-04T09:27:38.527Z,2.58
2022-09-04T09:30:25.698Z,2.80
2022-09-04T09:33:17.096Z,2.55
2022-09-04T09:36:12.228Z,2.53
2022-09-04T09:39:22.529Z,3.03
2022-09-04T09:42:07.886Z,3.08
2022-09-04T09:44:50.046Z,3.10
2022-09-04T09:47:19.641Z,3.50
2022-09-04T09:50:12.856Z,2.95
2022-09-04T09:53:01.117Z,3.10
2022-09-04T09:55:27.898Z,3.55
2022-09-04T09:58:23.307Z,4.00
2022-09-04T10:00:59.819Z,3.78
2022-09-04T10:03:39.008Z,4.15
2022-09-04T10:06:38.824Z,4.38
2022-09-04T10:09:27.510Z,4.20
2022-09-04T10:15:08.068Z,3.92
2022-09-04T10:17:56.071Z,3.47
2022-09-04T10:20:50.913Z,4.30
2022-09-04T10:23:56.348Z,3.67
2022-09-04T10:26:41.998Z,3.97
2022-09-04T10:29:55.933Z,3.50
2022-09-04T10:32:44.731Z,4.00
2022-09-04T10:35:31.733Z,3.88
2022-09-04T10:38:14.551Z,3.50
2022-09-04T10:41:06.937Z,3.60
2022-09-04T10:43:54.244Z,3.67
2022-09-04T10:46:43.041Z,3.80
2022-09-04T10:49:20.069Z,3.38
2022-09-04T10:51:56.375Z,3.33
2022-09-04T10:54:30.364Z,3.65
2022-09-04T10:57:31.964Z,3.65
2022-09-04T11:00:13.955Z,3.67
2022-09-04T11:03:03.429Z,3.13
2022-09-04T11:05:51.290Z,3.90
2022-09-04T11:09:00.669Z,3.30
2022-09-04T11:11:46.329Z,3.42
2022-09-04T11:14:34.337Z,3.65
2022-09-04T11:17:21.658Z,3.75
2022-09-04T11:19:58.396Z,3.72
2022-09-04T11:22:37.185Z,3.97
2022-09-04T11:25:20.612Z,3.60
2022-09-04T11:28:36.101Z,4.07
2022-09-04T11:31:23.407Z,4.60
2022-09-04T11:34:20.180Z,4.63
2022-09-04T11:36:59.215Z,4.50
2022-09-04T11:39:56.889Z,4.28
2022-09-04T11:42:55.567Z,4.80
2022-09-04T11:45:48.827Z,4.35
2022-09-04T11:51:07.989Z,3.92
2022-09-04T11:53:52.961Z,5.00
2022-09-04T11:56:41.648Z,4.32
2022-09-04T11:59:23.504Z,4.50
2022-09-04T12:02:43.917Z,4.30
2022-09-04T12:05:16.097Z,4.93
2022-09-04T12:07:59.364Z,4.28
2022-09-04T12:10:52.426Z,4.03
2022-09-04T12:13:27.574Z,4.65
2022-09-04T12:16:04.548Z,4.70
2022-09-04T12:18:41.798Z,4.18
2022-09-04T12:21:48.866Z,4.90
2022-09-04T12:24:41.148Z,4.72
2022-09-04T12:27:07.876Z,5.47
2022-09-04T12:29:56.464Z,5.00
2022-09-04T12:32:30.165Z,5.38
2022-09-04T12:35:31.740Z,5.25
2022-09-04T12:38:34.658Z,5.65
2022-09-04T12:41:22.606Z,5.28
2022-09-04T12:44:08.702Z,4.93
2022-09-04T12:47:07.075Z,4.68
2022-09-04T12:50:01.335Z,4.43
2022-09-04T12:52:40.944Z,4.10
2022-09-04T12:55:19.368Z,4.00
2022-09-04T12:58:05.444Z,4.20
2022-09-04T13:00:48.783Z,3.90
2022-09-04T13:03:29.673Z,3.92
2022-09-04T13:06:32.152Z,4.00
2022-09-04T13:09:02.766Z,4.28
2022-09-04T13:11:52.670Z,4.30
2022-09-04T13:14:28.541Z,4.60
2022-09-04T13:17:08.767Z,8.98
2022-09-04T13:19:45.974Z,4.18
2022-09-04T13:22:28.246Z,4.20
2022-09-04T13:25:16.608Z,5.00
2022-09-04T13:27:49.523Z,5.32
2022-09-04T13:32:53.186Z,4.88
2022-09-04T13:35:20.127Z,4.53
2022-09-04T13:38:24.491Z,4.80
2022-09-04T13:41:30.185Z,4.22
2022-09-04T13:44:22.267Z,4.32
2022-09-04T13:47:11.195Z,4.57
2022-09-04T13:49:52.623Z,5.03
2022-09-04T13:53:04.652Z,4.45
2022-09-04T13:55:37.776Z,4.63
2022-09-04T13:58:11.615Z,4.57
2022-09-04T14:00:45.974Z,5.18
2022-09-04T14:03:56.160Z,4.50
2022-09-04T14:06:24.237Z,4.90
2022-09-04T14:08:55.683Z,5.30
2022-09-04T14:11:51.508Z,4.40
2022-09-04T14:14:40.546Z,4.57
2022-09-04T14:17:08.443Z,4.40
2022-09-04T14:19:57.664Z,3.65
2022-09-04T14:23:03.483Z,3.50
2022-09-04T14:25:36.249Z,3.67
2022-09-04T14:28:45.805Z,3.15
2022-09-04T14:31:35.258Z,3.88
2022-09-04T14:34:14.090Z,3.72
2022-09-04T14:37:08.168Z,3.42
2022-09-04T14:39:34.920Z,3.72
2022-09-04T14:42:12.268Z,3.63
2022-09-04T14:45:09.526Z,3.60
2022-09-04T14:47:55.048Z,3.65
2022-09-04T14:50:28.596Z,3.17
2022-09-04T14:55:42.925Z,4.80
2022-09-04T14:58:24.440Z,4.55
2022-09-04T15:01:11.355Z,3.20
2022-09-04T15:03:46.943Z,3.53
2022-09-04T15:06:24.424Z,3.45
2022-09-04T15:08:53.869Z,2.88
2022-09-04T15:11:32.052Z,2.97
2022-09-04T15:14:12.407Z,3.00
2022-09-04T15:16:44.361Z,2.72
2022-09-04T15:19:28.451Z,2.60
2022-09-04T15:22:11.268Z,3.08
2022-09-04T15:24:43.900Z,3.28
2022-09-04T15:27:31.120Z,3.20
2022-09-04T15:30:18.087Z,3.35
2022-09-04T15:32:44.878Z,2.50
2022-09-04T15:35:34.096Z,2.70
2022-09-04T15:38:18.200Z,3.05
2022-09-04T15:41:16.556Z,3.45
2022-09-04T15:43:53.999Z,4.80
2022-09-04T15:46:32.976Z,4.55
2022-09-04T15:49:30.460Z,3.63
2022-09-04T15:52:34.807Z,3.45
2022-09-04T15:55:10.757Z,4.78
2022-09-04T15:57:42.933Z,3.97
2022-09-04T16:00:11.501Z,4.00
2022-09-04T16:02:59.424Z,3.90
2022-09-04T16:05:41.596Z,4.50
2022-09-04T16:08:20.453Z,5.17
2022-09-04T16:10:57.491Z,3.85
2022-09-04T16:13:27.221Z,3.85
2022-09-04T16:16:04.180Z,4.28
2022-09-04T16:19:00.827Z,4.75
2022-09-04T16:21:40.657Z,3.88
2022-09-04T16:24:16.130Z,4.30
2022-09-04T16:26:48.194Z,5.30
2022-09-04T16:29:28.111Z,5.03
2022-09-04T16:31:56.058Z,6.57
2022-09-04T16:34:24.190Z,4.43
2022-09-04T16:37:28.428Z,6.00
2022-09-04T16:40:17.605Z,5.57
2022-09-04T16:42:48.096Z,4.60
2022-09-04T16:45:34.702Z,4.15
2022-09-04T16:48:21.898Z,4.25
2022-09-04T16:50:57.229Z,4.38
2022-09-04T16:53:29.394Z,4.18
2022-09-04T16:56:08.897Z,3.97
2022-09-04T16:58:47.137Z,4.82
2022-09-04T17:01:28.873Z,4.45
2022-09-04T17:04:13.251Z,4.40
2022-09-04T17:06:57.669Z,4.75
2022-09-04T17:09:32.290Z,4.32
2022-09-04T17:12:24.640Z,4.50
2022-09-04T17:15:25.590Z,4.63
2022-09-04T17:17:54.484Z,4.50
2022-09-04T17:20:33.639Z,4.65
2022-09-04T17:28:59.851Z,4.80
2022-09-04T17:29:08.633Z,4.53
2022-09-04T17:29:36.878Z,4.45
2022-09-04T17:33:52.164Z,4.10
2022-09-04T17:40:40.623Z,4.28
2022-09-04T17:40:51.766Z,4.68
2022-09-04T17:41:55.587Z,4.85
2022-09-04T17:44:34.384Z,5.32
2022-09-04T17:47:14.177Z,5.30
2022-09-04T17:49:53.340Z,4.88
2022-09-04T17:52:28.671Z,5.03
2022-09-04T17:55:11.419Z,4.68
2022-09-04T17:58:12.337Z,4.88
2022-09-04T18:01:13.896Z,5.00
2022-09-04T18:04:20.052Z,4.90
2022-09-04T18:06:39.983Z,4.75
2022-09-04T18:09:11.938Z,4.60
2022-09-04T18:11:45.938Z,5.20
2022-09-04T18:14:41.538Z,4.93
2022-09-04T18:17:21.901Z,5.25
2022-09-04T18:19:55.820Z,5.68
2022-09-04T18:22:44.468Z,5.22
2022-09-04T18:25:16.151Z,6.28
2022-09-04T18:37:12.777Z,5.43
2022-09-04T18:37:19.825Z,5.63
2022-09-04T18:37:44.245Z,5.53
2022-09-04T18:40:21.546Z,5.97
2022-09-04T18:49:03.072Z,5.90
2022-09-04T18:50:32.229Z,6.60
2022-09-04T18:50:50.179Z,8.43
2022-09-04T18:51:54.988Z,10.93
2022-09-04T18:54:39.825Z,7.57
2022-09-04T18:57:24.533Z,6.60
2022-09-04T18:59:59.777Z,8.65
2022-09-04T19:02:53.341Z,6.32
2022-09-04T19:05:21.455Z,6.53
2022-09-04T19:07:52.957Z,6.15
2022-09-04T19:10:37.091Z,5.20
2022-09-04T19:13:22.445Z,5.93
2022-09-04T19:16:04.740Z,6.28
2022-09-04T19:18:58.827Z,7.33
2022-09-04T19:21:44.407Z,7.97
2022-09-04T19:24:49.987Z,8.48
2022-09-04T19:27:41.902Z,7.53
2022-09-04T19:30:23.807Z,5.88
2022-09-04T19:35:56.796Z,6.82
2022-09-04T19:45:56.754Z,7.00
2022-09-04T19:45:59.933Z,7.18
2022-09-04T19:46:17.427Z,6.25
2022-09-04T19:47:40.628Z,6.28
2022-09-04T19:53:19.282Z,6.50
2022-09-04T19:53:33.252Z,6.15
2022-09-04T19:56:23.725Z,6.57
2022-09-04T19:58:53.589Z,5.63
2022-09-04T20:01:23.927Z,6.25
2022-09-04T20:03:56.137Z,6.65
2022-09-04T20:06:30.304Z,7.30
2022-09-04T20:09:21.627Z,6.78
2022-09-04T20:11:55.704Z,6.47
2022-09-04T20:14:32.008Z,5.95
2022-09-04T20:17:07.874Z,5.60
2022-09-04T20:19:38.744Z,6.57
2022-09-04T20:22:12.291Z,6.55
2022-09-04T20:25:05.923Z,5.93
2022-09-04T20:27:48.690Z,7.00
2022-09-04T20:30:24.910Z,6.80
2022-09-04T20:32:58.254Z,7.38
2022-09-04T20:35:44.880Z,7.75
2022-09-04T20:38:23.893Z,7.20
2022-09-04T20:41:15.871Z,7.70
2022-09-04T20:43:54.741Z,7.47
2022-09-04T20:52:42.701Z,7.07
2022-09-04T20:52:57.020Z,6.43
